Startpagina
METAR-TAF:

METAR-TAF

Vliegvelden :

Luchthaven Port Moresby

Port Moresby, Papoea-Nieuw-Guinea

breedte: 09-26S, lengte: 147-13E, hoogte: 38 m

Actueel weer

Dit bericht is 8 uur en het 47 minuten geleden gemaakt, om 10:00 UTC
Wind 12 kt uit het zuidoosten
Temperatuur 27°C
Vochtigheid 84%
Druk 1010 hPa
Zicht 10 km of meer
Weinig wolken op 3000 ft
Verspreide wolken op 6000 ft

METAR: AYPY 231000Z 13012KT 9999 FEW030 SCT060 CB 27/24 Q1010

Tijdstip: 04:47 (18:47 UTC)

Verwachting

Dit bericht is 2 uur en het 43 minuten geleden gemaakt, om 16:04 UTC
Verwachting geldig van 23 om 18 UTC tot 24 om 18 UTC
Wind 3 kt uit variabele richting
Zicht 10 km of meer
Gebroken wolken op 4000 ft
Van 23 om 2300 UTC
Wind 8 kt uit het zuiden
Zicht 10 km of meer
Verspreide wolken op 1800 ft
Verspreide wolken op 14000 ft
Kans 30%
van 23 om 19 UTC tot 23 om 21 UTC
Zicht: 1011 m
mist

TAF: AYPY 231604Z 2318/2418 VRB03KT 9999 BKN040 FM232300 17008KT 9999 SCT018 SCT140 PROB30 2319/2321 0600 FG T/24 25 28 30 Q/1009 1010 1012 1011

Waarnemingen en weersverwachtingen van meer dan 4000 vliegvelden (METAR en TAF).

De beschikbare stations zijn de gele en rode punten op de kaart.

Ga met uw muis naar het station om de naam te zien.

Klik dan om waarnemingen en weersverwachtingen te zien.

kaart wijzigen: klik op de groene knoppen met een zwart kruis om in te zoomen, op de groene knop met een streepje om uit te zoomen of op de groene pijlen voor aangrenzende kaarten.


METAR-TAF: